Time;durP1;ratioP1;P1;durP2;ratioP2;P2;SDS_P1;SDS_P2;PMS_P1;PMS_P2;Temp;Humidity;BMP_temperature;BMP_pressure;BME280_temperature;BME280_humidity;BME280_pressure;Samples;Min_cycle;Max_cycle;Signal;HPM_P1;HPM_P2
2021/10/15 00:01:42;;;;;;;4.75;1.88;;;;;;;;;;4915027;29;20028;-36
2021/10/15 00:04:08;;;;;;;3.47;1.70;;;;;;;;;;4915178;29;20051;-36
2021/10/15 00:06:34;;;;;;;1.73;1.42;;;;;;;;;;4914921;29;20036;-36
2021/10/15 00:08:59;;;;;;;5.88;2.20;;;;;;;;;;4915225;29;20046;-36
2021/10/15 00:11:24;;;;;;;3.45;1.67;;;;;;;;;;4915139;29;20068;-36
2021/10/15 00:13:50;;;;;;;2.75;1.70;;;;;;;;;;4914952;29;20375;-36
2021/10/15 00:16:16;;;;;;;2.13;1.90;;;;;;;;;;4914968;29;20413;-36
2021/10/15 00:18:42;;;;;;;5.07;1.77;;;;;;;;;;4913614;29;20039;-36
2021/10/15 00:21:07;;;;;;;2.25;1.55;;;;;;;;;;4915168;29;20017;-36
2021/10/15 00:23:33;;;;;;;1.88;1.75;;;;;;;;;;4914785;29;20047;-36
2021/10/15 00:25:58;;;;;;;1.85;1.25;;;;;;;;;;4917151;29;20047;-36
2021/10/15 00:28:24;;;;;;;3.67;1.80;;;;;;;;;;4918417;29;20479;-36
2021/10/15 00:30:50;;;;;;;3.50;1.83;;;;;;;;;;4918155;29;20083;-36
2021/10/15 00:33:15;;;;;;;3.17;1.88;;;;;;;;;;4918458;29;20062;-36
2021/10/15 00:35:41;;;;;;;2.42;1.83;;;;;;;;;;4918513;29;20443;-36
2021/10/15 00:38:06;;;;;;;1.40;1.30;;;;;;;;;;4918335;29;20428;-36
2021/10/15 00:40:31;;;;;;;2.08;1.60;;;;;;;;;;4918172;29;20025;-36
2021/10/15 00:42:57;;;;;;;2.15;1.77;;;;;;;;;;4918467;29;20043;-36
2021/10/15 00:45:22;;;;;;;3.55;1.70;;;;;;;;;;4918091;29;20020;-36
2021/10/15 00:47:48;;;;;;;2.42;1.75;;;;;;;;;;4918396;29;20494;-36
2021/10/15 00:50:13;;;;;;;2.20;1.60;;;;;;;;;;4918045;29;20399;-37
2021/10/15 00:52:40;;;;;;;2.30;1.65;;;;;;;;;;4918148;29;20149;-36
2021/10/15 00:55:05;;;;;;;5.65;1.90;;;;;;;;;;4917977;29;20031;-36
2021/10/15 00:57:31;;;;;;;2.42;1.85;;;;;;;;;;4918005;29;20040;-36
2021/10/15 00:59:56;;;;;;;2.58;1.65;;;;;;;;;;4917890;29;20024;-36
2021/10/15 01:02:22;;;;;;;3.90;2.05;;;;;;;;;;4917799;29;20038;-36
2021/10/15 01:04:47;;;;;;;3.25;2.40;;;;;;;;;;4932530;29;20195;-36
2021/10/15 01:07:14;;;;;;;2.95;1.33;;;;;;;;;;4917964;29;20032;-36
2021/10/15 01:09:41;;;;;;;4.90;1.90;;;;;;;;;;4917650;29;20111;-36
2021/10/15 01:12:07;;;;;;;3.08;1.83;;;;;;;;;;4917676;29;20437;-36
2021/10/15 01:14:32;;;;;;;1.75;1.40;;;;;;;;;;4917628;29;20035;-36
2021/10/15 01:17:02;;;;;;;3.42;1.85;;;;;;;;;;4916449;29;20035;-36
2021/10/15 01:19:28;;;;;;;4.85;3.13;;;;;;;;;;4917423;29;20035;-36
2021/10/15 01:21:53;;;;;;;3.08;1.75;;;;;;;;;;4917518;29;20032;-36
2021/10/15 01:24:18;;;;;;;3.65;2.00;;;;;;;;;;4917788;29;20510;-36
2021/10/15 01:26:44;;;;;;;3.85;2.35;;;;;;;;;;4917694;29;20467;-37
2021/10/15 01:29:11;;;;;;;3.17;1.65;;;;;;;;;;4917506;29;20372;-36
2021/10/15 01:31:37;;;;;;;2.45;1.80;;;;;;;;;;4917088;29;20052;-36
2021/10/15 01:34:02;;;;;;;3.13;2.13;;;;;;;;;;4917646;29;20035;-36
2021/10/15 01:36:28;;;;;;;2.60;1.98;;;;;;;;;;4916559;29;20032;-39
2021/10/15 01:38:53;;;;;;;1.98;1.50;;;;;;;;;;4917338;29;20040;-36
2021/10/15 01:41:19;;;;;;;2.88;1.75;;;;;;;;;;4917513;29;20028;-36
2021/10/15 01:43:44;;;;;;;2.13;1.58;;;;;;;;;;4917258;29;20031;-36
2021/10/15 01:46:10;;;;;;;8.70;1.73;;;;;;;;;;4917111;29;20036;-36
2021/10/15 01:48:35;;;;;;;1.58;1.10;;;;;;;;;;4915821;29;20119;-36
2021/10/15 01:51:01;;;;;;;2.25;1.75;;;;;;;;;;4916961;29;20548;-37
2021/10/15 01:53:27;;;;;;;2.00;1.23;;;;;;;;;;4916969;29;20420;-36
2021/10/15 01:55:52;;;;;;;4.95;1.90;;;;;;;;;;4916955;29;20203;-37
2021/10/15 01:58:18;;;;;;;3.92;1.75;;;;;;;;;;4915717;29;20495;-36
2021/10/15 02:00:44;;;;;;;2.40;1.67;;;;;;;;;;4916839;29;20127;-36
2021/10/15 02:03:14;;;;;;;4.07;2.38;;;;;;;;;;4916883;29;20043;-36
2021/10/15 02:05:39;;;;;;;3.20;2.13;;;;;;;;;;4916777;29;20032;-36
2021/10/15 02:08:05;;;;;;;3.03;1.75;;;;;;;;;;4916995;29;20031;-37
2021/10/15 02:10:30;;;;;;;2.58;2.20;;;;;;;;;;4916573;29;20051;-36
2021/10/15 02:12:56;;;;;;;3.33;1.83;;;;;;;;;;4916550;29;20020;-37
2021/10/15 02:15:22;;;;;;;8.15;2.03;;;;;;;;;;4916509;29;20088;-36
2021/10/15 02:17:47;;;;;;;3.92;1.90;;;;;;;;;;4916855;29;20028;-37
2021/10/15 02:20:14;;;;;;;4.10;1.75;;;;;;;;;;4916415;29;20040;-37
2021/10/15 02:22:40;;;;;;;1.05;0.95;;;;;;;;;;4916320;29;20062;-37
2021/10/15 02:25:06;;;;;;;2.13;1.38;;;;;;;;;;4916467;29;20091;-36
2021/10/15 02:27:32;;;;;;;2.22;1.92;;;;;;;;;;4916270;29;20020;-38
2021/10/15 02:29:57;;;;;;;3.20;1.90;;;;;;;;;;4916280;29;20043;-36
2021/10/15 02:32:22;;;;;;;2.75;1.70;;;;;;;;;;4915981;29;20055;-36
2021/10/15 02:34:48;;;;;;;4.13;2.03;;;;;;;;;;4916442;29;20368;-36
2021/10/15 02:37:14;;;;;;;4.22;2.10;;;;;;;;;;4930833;29;20088;-36
2021/10/15 02:39:39;;;;;;;4.30;1.58;;;;;;;;;;4916288;29;20039;-36
2021/10/15 02:42:08;;;;;;;4.13;2.13;;;;;;;;;;4916174;29;20048;-36
2021/10/15 02:44:34;;;;;;;3.22;1.85;;;;;;;;;;4916186;29;20111;-36
2021/10/15 02:46:59;;;;;;;2.20;1.60;;;;;;;;;;4916108;29;20127;-36
2021/10/15 02:49:25;;;;;;;3.40;1.60;;;;;;;;;;4915842;29;20028;-36
2021/10/15 02:51:50;;;;;;;4.50;1.92;;;;;;;;;;4915844;29;20040;-37
2021/10/15 02:54:16;;;;;;;3.53;1.40;;;;;;;;;;4915898;29;20100;-36
2021/10/15 02:56:42;;;;;;;6.60;1.98;;;;;;;;;;4916071;29;20028;-36
2021/10/15 02:59:08;;;;;;;2.00;1.67;;;;;;;;;;4915732;29;20476;-36
2021/10/15 03:01:34;;;;;;;3.53;1.92;;;;;;;;;;4915732;29;20095;-36
2021/10/15 03:04:00;;;;;;;3.65;1.95;;;;;;;;;;4915631;29;20591;-36
2021/10/15 03:06:25;;;;;;;2.53;1.67;;;;;;;;;;4915647;29;20051;-36
2021/10/15 03:08:50;;;;;;;5.07;1.80;;;;;;;;;;4915676;29;20116;-37
2021/10/15 03:11:16;;;;;;;5.80;2.33;;;;;;;;;;4915498;29;20083;-36
2021/10/15 03:13:41;;;;;;;3.88;1.95;;;;;;;;;;4915793;29;20039;-36
2021/10/15 03:16:07;;;;;;;1.73;1.40;;;;;;;;;;4914257;29;20055;-36
2021/10/15 03:18:32;;;;;;;5.30;1.35;;;;;;;;;;4915731;29;20626;-37
2021/10/15 03:20:57;;;;;;;3.50;2.20;;;;;;;;;;4915804;29;20028;-36
2021/10/15 03:23:23;;;;;;;2.85;1.52;;;;;;;;;;4915502;29;20127;-36
2021/10/15 03:25:48;;;;;;;3.38;1.80;;;;;;;;;;4915526;29;20109;-36
2021/10/15 03:28:14;;;;;;;4.10;1.90;;;;;;;;;;4915731;29;20083;-37
2021/10/15 03:30:39;;;;;;;4.07;1.55;;;;;;;;;;4915070;29;20123;-41
2021/10/15 03:33:05;;;;;;;2.08;1.50;;;;;;;;;;4915194;29;20044;-36
2021/10/15 03:35:31;;;;;;;2.00;1.40;;;;;;;;;;4915222;29;20484;-37
2021/10/15 03:37:56;;;;;;;6.00;2.72;;;;;;;;;;4915290;29;20032;-36
2021/10/15 03:40:22;;;;;;;2.67;1.73;;;;;;;;;;4915223;29;20032;-36
2021/10/15 03:42:47;;;;;;;6.00;2.53;;;;;;;;;;4914992;29;20044;-36
2021/10/15 03:45:13;;;;;;;2.92;1.83;;;;;;;;;;4915105;29;20024;-36
2021/10/15 03:47:38;;;;;;;6.07;1.65;;;;;;;;;;4915332;29;20084;-36
2021/10/15 03:50:04;;;;;;;4.45;1.73;;;;;;;;;;4915080;29;20125;-37
2021/10/15 03:52:30;;;;;;;2.70;1.50;;;;;;;;;;4915316;29;20042;-36
2021/10/15 03:54:55;;;;;;;3.10;1.67;;;;;;;;;;4915271;29;20025;-36
2021/10/15 03:57:21;;;;;;;5.53;1.80;;;;;;;;;;4915110;29;20576;-36
2021/10/15 03:59:46;;;;;;;1.45;1.30;;;;;;;;;;4915469;29;20080;-36
2021/10/15 04:02:11;;;;;;;1.98;1.70;;;;;;;;;;4918982;29;20568;-36
2021/10/15 04:04:37;;;;;;;2.92;1.55;;;;;;;;;;4918809;29;20024;-36
2021/10/15 04:07:02;;;;;;;2.15;1.63;;;;;;;;;;4919147;29;20096;-36
2021/10/15 04:09:28;;;;;;;2.47;1.48;;;;;;;;;;4918860;29;20360;-37
2021/10/15 04:11:53;;;;;;;2.33;1.70;;;;;;;;;;4918652;29;20079;-36
2021/10/15 04:14:18;;;;;;;3.50;2.20;;;;;;;;;;4918983;29;20032;-37
2021/10/15 04:16:44;;;;;;;4.53;2.13;;;;;;;;;;4918752;29;20043;-37
2021/10/15 04:19:09;;;;;;;6.82;2.05;;;;;;;;;;4918617;29;20048;-37
2021/10/15 04:21:34;;;;;;;3.80;2.15;;;;;;;;;;4918786;29;20028;-37
2021/10/15 04:24:00;;;;;;;3.08;2.00;;;;;;;;;;4918724;29;20020;-36
2021/10/15 04:26:25;;;;;;;2.38;1.85;;;;;;;;;;4918369;29;20024;-36
2021/10/15 04:28:51;;;;;;;4.00;1.75;;;;;;;;;;4918592;29;20080;-36
2021/10/15 04:31:16;;;;;;;1.70;1.30;;;;;;;;;;4918483;29;20048;-37
2021/10/15 04:33:42;;;;;;;2.95;1.83;;;;;;;;;;4918229;29;20043;-36
2021/10/15 04:36:07;;;;;;;5.10;1.98;;;;;;;;;;4918474;29;20035;-36
2021/10/15 04:38:32;;;;;;;4.93;2.25;;;;;;;;;;4918270;29;20028;-36
2021/10/15 04:40:58;;;;;;;4.00;1.83;;;;;;;;;;4918287;29;20539;-36
2021/10/15 04:43:23;;;;;;;1.60;1.27;;;;;;;;;;4918239;29;20091;-36
2021/10/15 04:45:49;;;;;;;2.17;1.90;;;;;;;;;;4918167;29;20046;-36
2021/10/15 04:48:14;;;;;;;3.03;1.00;;;;;;;;;;4917123;29;20024;-37
2021/10/15 04:50:40;;;;;;;3.33;2.28;;;;;;;;;;4918226;29;20051;-36
2021/10/15 04:53:06;;;;;;;4.95;2.15;;;;;;;;;;4918299;29;20055;-36
2021/10/15 04:55:32;;;;;;;7.00;1.52;;;;;;;;;;4917940;29;20032;-36
2021/10/15 04:57:57;;;;;;;3.90;1.83;;;;;;;;;;4918009;29;20020;-36
2021/10/15 05:00:24;;;;;;;2.60;1.67;;;;;;;;;;4916925;29;20111;-36
2021/10/15 05:02:51;;;;;;;1.70;1.58;;;;;;;;;;4917887;29;20025;-36
2021/10/15 05:05:19;;;;;;;3.13;1.60;;;;;;;;;;4918163;29;20489;-37
2021/10/15 05:07:45;;;;;;;2.05;1.23;;;;;;;;;;4918086;29;20024;-37
2021/10/15 05:10:11;;;;;;;1.90;1.70;;;;;;;;;;4917647;29;20514;-36
2021/10/15 05:12:36;;;;;;;2.97;1.63;;;;;;;;;;4916404;29;20028;-36
2021/10/15 05:15:02;;;;;;;2.15;1.70;;;;;;;;;;4917739;29;20036;-36
2021/10/15 05:17:28;;;;;;;3.03;1.30;;;;;;;;;;4917514;29;20028;-36
2021/10/15 05:19:53;;;;;;;2.00;1.40;;;;;;;;;;4917746;29;20032;-36
2021/10/15 05:22:19;;;;;;;3.45;1.75;;;;;;;;;;4917820;29;20455;-37
2021/10/15 05:24:44;;;;;;;1.98;1.10;;;;;;;;;;4917402;29;20036;-37
2021/10/15 05:27:09;;;;;;;2.58;1.70;;;;;;;;;;4917589;29;20145;-36
2021/10/15 05:29:35;;;;;;;3.00;1.73;;;;;;;;;;4917249;29;20495;-36
2021/10/15 05:32:00;;;;;;;2.60;1.83;;;;;;;;;;4917265;29;20109;-38
2021/10/15 05:34:26;;;;;;;6.80;2.33;;;;;;;;;;4917335;29;20044;-37
2021/10/15 05:36:51;;;;;;;3.42;1.67;;;;;;;;;;4917640;29;20043;-36
2021/10/15 05:39:17;;;;;;;2.20;1.77;;;;;;;;;;4917287;29;20054;-36
2021/10/15 05:41:42;;;;;;;2.70;1.67;;;;;;;;;;4917384;29;20229;-36
2021/10/15 05:44:07;;;;;;;1.50;1.25;;;;;;;;;;4917550;29;20471;-36
2021/10/15 05:46:33;;;;;;;2.92;1.77;;;;;;;;;;4917078;29;20548;-36
2021/10/15 05:48:58;;;;;;;4.07;1.67;;;;;;;;;;4917402;29;20108;-36
2021/10/15 05:51:25;;;;;;;2.28;1.63;;;;;;;;;;4916989;29;20483;-36
2021/10/15 05:53:54;;;;;;;2.42;1.52;;;;;;;;;;4917013;29;20072;-36
2021/10/15 05:56:44;;;;;;;5.20;1.42;;;;;;;;;;4931702;29;20058;-36
2021/10/15 05:59:07;;;;;;;3.08;1.60;;;;;;;;;;4916785;29;20040;-36
2021/10/15 06:01:35;;;;;;;3.58;1.67;;;;;;;;;;4916780;29;20387;-36
2021/10/15 06:14:40;;;;;;;3.78;2.00;;;;;;;;;;4916562;29;20134;-36
2021/10/15 06:17:11;;;;;;;3.55;1.98;;;;;;;;;;4916671;29;20428;-36
2021/10/15 06:19:55;;;;;;;2.80;1.60;;;;;;;;;;4916462;29;20560;-37
2021/10/15 06:22:20;;;;;;;2.92;1.50;;;;;;;;;;4916445;29;20044;-36
2021/10/15 06:24:49;;;;;;;2.65;1.77;;;;;;;;;;4916419;29;20028;-36
2021/10/15 06:27:15;;;;;;;4.72;1.75;;;;;;;;;;4916412;29;20039;-37
2021/10/15 06:29:40;;;;;;;3.85;1.80;;;;;;;;;;4916562;29;20028;-36
2021/10/15 06:32:07;;;;;;;5.95;1.70;;;;;;;;;;4915044;29;20078;-36
2021/10/15 06:34:32;;;;;;;5.20;3.05;;;;;;;;;;4916179;29;20034;-37
2021/10/15 06:36:58;;;;;;;4.10;1.95;;;;;;;;;;4916312;29;20114;-36
2021/10/15 06:39:23;;;;;;;5.05;1.80;;;;;;;;;;4914913;29;20025;-36
2021/10/15 06:41:49;;;;;;;1.90;1.75;;;;;;;;;;4915895;29;20032;-36
2021/10/15 06:44:14;;;;;;;5.32;2.40;;;;;;;;;;4916125;29;20040;-36
2021/10/15 06:46:40;;;;;;;3.35;2.30;;;;;;;;;;4916034;29;20118;-36
2021/10/15 06:49:05;;;;;;;3.72;1.73;;;;;;;;;;4916238;29;20819;-36
2021/10/15 06:51:31;;;;;;;1.75;1.38;;;;;;;;;;4915863;29;20871;-37
2021/10/15 06:53:56;;;;;;;2.75;1.60;;;;;;;;;;4915893;29;20454;-36
2021/10/15 06:56:22;;;;;;;5.03;2.20;;;;;;;;;;4915947;29;20084;-36
2021/10/15 06:58:47;;;;;;;4.20;1.80;;;;;;;;;;4915813;29;20020;-36
2021/10/15 07:01:12;;;;;;;2.28;1.40;;;;;;;;;;4915914;29;20414;-36
2021/10/15 07:03:38;;;;;;;2.83;1.75;;;;;;;;;;4915662;29;20023;-36
2021/10/15 07:06:03;;;;;;;2.60;1.65;;;;;;;;;;4915960;29;20036;-36
2021/10/15 07:08:29;;;;;;;3.42;1.70;;;;;;;;;;4915737;29;20479;-36
2021/10/15 07:10:54;;;;;;;2.47;1.27;;;;;;;;;;4915528;29;20044;-36
2021/10/15 07:13:20;;;;;;;9.15;2.03;;;;;;;;;;4915812;29;20035;-37
2021/10/15 07:15:46;;;;;;;2.28;1.80;;;;;;;;;;4915869;29;20423;-36
2021/10/15 07:18:12;;;;;;;1.27;1.08;;;;;;;;;;4915470;29;20020;-36
2021/10/15 07:20:38;;;;;;;4.00;1.98;;;;;;;;;;4915372;29;20510;-36
2021/10/15 07:23:04;;;;;;;1.45;1.35;;;;;;;;;;4915556;29;20032;-36
2021/10/15 07:25:29;;;;;;;2.08;1.48;;;;;;;;;;4915210;29;20051;-36
2021/10/15 07:27:54;;;;;;;1.60;1.23;;;;;;;;;;4915510;29;20016;-36
2021/10/15 07:30:20;;;;;;;3.05;1.48;;;;;;;;;;4915597;29;20051;-36
2021/10/15 07:32:46;;;;;;;5.03;1.50;;;;;;;;;;4914994;29;20048;-36
2021/10/15 07:35:11;;;;;;;2.13;1.35;;;;;;;;;;4914629;29;20035;-36
2021/10/15 07:37:37;;;;;;;1.48;1.05;;;;;;;;;;4915214;29;20027;-36
2021/10/15 07:40:04;;;;;;;1.75;1.15;;;;;;;;;;4915227;29;20257;-37
2021/10/15 07:42:29;;;;;;;2.92;2.00;;;;;;;;;;4915164;29;20484;-36
2021/10/15 07:44:55;;;;;;;2.60;1.13;;;;;;;;;;4913938;29;20096;-36
2021/10/15 07:47:20;;;;;;;2.35;1.17;;;;;;;;;;4915244;29;20069;-37
2021/10/15 07:49:46;;;;;;;1.55;1.17;;;;;;;;;;4915053;29;20039;-36
2021/10/15 07:52:11;;;;;;;2.00;1.55;;;;;;;;;;4914974;29;20043;-36
2021/10/15 07:54:36;;;;;;;4.75;1.55;;;;;;;;;;4915067;29;20038;-36
2021/10/15 07:57:04;;;;;;;4.50;1.90;;;;;;;;;;4915058;29;20066;-36
2021/10/15 07:59:30;;;;;;;2.25;1.75;;;;;;;;;;4915238;29;20442;-36
2021/10/15 08:01:55;;;;;;;1.35;1.25;;;;;;;;;;4915027;29;20111;-36
2021/10/15 08:04:20;;;;;;;3.38;1.92;;;;;;;;;;4915011;29;20214;-36
2021/10/15 08:06:46;;;;;;;4.78;1.88;;;;;;;;;;4915014;29;20035;-36
2021/10/15 08:09:12;;;;;;;1.88;1.52;;;;;;;;;;4915568;29;20032;-36
2021/10/15 08:11:37;;;;;;;2.47;2.00;;;;;;;;;;4915037;29;20111;-36
2021/10/15 08:14:03;;;;;;;3.00;1.45;;;;;;;;;;4915176;29;20108;-36
2021/10/15 08:16:28;;;;;;;1.88;1.40;;;;;;;;;;4914819;29;20535;-36
2021/10/15 08:18:54;;;;;;;2.58;1.67;;;;;;;;;;4915194;29;20036;-36
2021/10/15 08:21:20;;;;;;;3.45;1.90;;;;;;;;;;4914740;29;20114;-37
2021/10/15 08:23:45;;;;;;;5.30;1.60;;;;;;;;;;4914789;29;20131;-36
2021/10/15 08:26:11;;;;;;;2.30;1.45;;;;;;;;;;4913804;29;20107;-37
2021/10/15 08:28:36;;;;;;;2.03;1.15;;;;;;;;;;4914679;29;20029;-36
2021/10/15 08:31:02;;;;;;;1.80;1.20;;;;;;;;;;4913408;29;20036;-36
2021/10/15 08:33:28;;;;;;;2.17;2.00;;;;;;;;;;4914661;29;20047;-37
2021/10/15 08:35:53;;;;;;;4.53;1.60;;;;;;;;;;4914947;29;20111;-36
2021/10/15 08:38:19;;;;;;;1.73;1.13;;;;;;;;;;4915048;29;20032;-36
2021/10/15 08:40:45;;;;;;;1.75;1.40;;;;;;;;;;4914880;29;20460;-36
2021/10/15 08:43:10;;;;;;;2.25;1.42;;;;;;;;;;4914745;29;20464;-36
2021/10/15 08:45:36;;;;;;;2.08;1.30;;;;;;;;;;4914550;29;20027;-36
2021/10/15 08:48:02;;;;;;;1.88;1.25;;;;;;;;;;4918490;29;20056;-36
2021/10/15 08:50:28;;;;;;;2.42;1.42;;;;;;;;;;4917593;29;20028;-36
2021/10/15 08:52:54;;;;;;;1.85;1.20;;;;;;;;;;4918135;29;20028;-36
2021/10/15 08:55:19;;;;;;;2.80;1.25;;;;;;;;;;4918222;29;20115;-37
2021/10/15 08:57:48;;;;;;;1.38;1.10;;;;;;;;;;4917990;29;20609;-36
2021/10/15 09:00:22;;;;;;;2.50;1.50;;;;;;;;;;4916762;29;20032;-36
2021/10/15 09:03:06;;;;;;;2.53;1.20;;;;;;;;;;4918191;29;20036;-36
2021/10/15 09:05:31;;;;;;;2.75;1.20;;;;;;;;;;4917864;29;20115;-35
2021/10/15 09:07:57;;;;;;;1.05;0.85;;;;;;;;;;4917926;29;20057;-36
2021/10/15 09:10:29;;;;;;;1.27;1.13;;;;;;;;;;4917819;29;20426;-36
2021/10/15 09:12:58;;;;;;;2.20;1.42;;;;;;;;;;4916519;29;20032;-36
2021/10/15 09:15:36;;;;;;;1.25;1.00;;;;;;;;;;4917754;29;20047;-36
2021/10/15 09:18:33;;;;;;;1.77;1.05;;;;;;;;;;4917709;29;20111;-36
2021/10/15 09:21:12;;;;;;;1.90;1.15;;;;;;;;;;4875544;29;20048;-36
2021/10/15 09:23:44;;;;;;;0.85;0.77;;;;;;;;;;4917790;29;20119;-36
2021/10/15 09:26:09;;;;;;;1.42;0.90;;;;;;;;;;4917798;29;20040;-37
2021/10/15 09:28:39;;;;;;;1.25;0.80;;;;;;;;;;4917431;29;20364;-36
2021/10/15 09:31:05;;;;;;;5.28;0.65;;;;;;;;;;4917284;29;20048;-36
2021/10/15 09:33:31;;;;;;;2.42;1.40;;;;;;;;;;4917298;29;20032;-36
2021/10/15 09:36:06;;;;;;;1.83;0.85;;;;;;;;;;4917742;29;20368;-36
2021/10/15 09:38:31;;;;;;;2.85;1.05;;;;;;;;;;4917492;29;20024;-36
2021/10/15 09:40:57;;;;;;;3.33;1.17;;;;;;;;;;4917550;29;20027;-36
2021/10/15 09:43:32;;;;;;;1.35;0.75;;;;;;;;;;4917269;29;20113;-37
2021/10/15 09:45:58;;;;;;;1.08;0.98;;;;;;;;;;4917605;29;20043;-36
2021/10/15 09:48:31;;;;;;;3.85;0.98;;;;;;;;;;4917397;29;20466;-36
2021/10/15 09:51:16;;;;;;;0.88;0.77;;;;;;;;;;4917299;29;20044;-36
2021/10/15 09:53:42;;;;;;;1.30;0.70;;;;;;;;;;4917006;29;20044;-36
2021/10/15 09:56:08;;;;;;;1.05;0.75;;;;;;;;;;4917210;29;20420;-36
2021/10/15 09:58:33;;;;;;;1.02;0.93;;;;;;;;;;4916276;29;20036;-36
2021/10/15 10:00:59;;;;;;;0.88;0.68;;;;;;;;;;4916901;29;20490;-36
2021/10/15 10:03:28;;;;;;;0.90;0.85;;;;;;;;;;4916896;29;20788;-36
2021/10/15 10:05:53;;;;;;;1.15;0.95;;;;;;;;;;4917090;29;20119;-36
2021/10/15 10:08:19;;;;;;;2.95;1.10;;;;;;;;;;4916791;29;20579;-36
2021/10/15 10:10:45;;;;;;;1.33;0.75;;;;;;;;;;4916660;29;20036;-36
2021/10/15 10:13:13;;;;;;;2.40;1.35;;;;;;;;;;4915417;29;20471;-37
2021/10/15 10:15:39;;;;;;;9.63;1.17;;;;;;;;;;4916595;29;20020;-36
2021/10/15 10:18:25;;;;;;;2.50;0.70;;;;;;;;;;4916596;29;20044;-36
2021/10/15 10:20:53;;;;;;;1.20;1.02;;;;;;;;;;4916806;29;20399;-36
2021/10/15 10:23:23;;;;;;;4.68;1.02;;;;;;;;;;4916447;29;20024;-36
2021/10/15 10:25:49;;;;;;;1.00;0.60;;;;;;;;;;4916471;29;20062;-36
2021/10/15 10:28:19;;;;;;;3.67;1.00;;;;;;;;;;4916455;29;20096;-36
2021/10/15 10:30:46;;;;;;;1.10;1.00;;;;;;;;;;4916003;29;20479;-36
2021/10/15 10:33:12;;;;;;;1.05;0.85;;;;;;;;;;4916621;29;20040;-36
2021/10/15 10:35:38;;;;;;;0.77;0.60;;;;;;;;;;4916197;29;20091;-36
2021/10/15 10:38:18;;;;;;;1.20;1.10;;;;;;;;;;4930819;29;20039;-36
2021/10/15 10:40:59;;;;;;;2.70;1.00;;;;;;;;;;4916093;29;20031;-36
2021/10/15 10:43:28;;;;;;;1.30;1.08;;;;;;;;;;4916169;29;20039;-36
2021/10/15 10:46:09;;;;;;;4.85;0.90;;;;;;;;;;4916043;29;20024;-36
2021/10/15 10:48:46;;;;;;;1.23;0.65;;;;;;;;;;4916266;29;20379;-36
2021/10/15 10:51:18;;;;;;;1.45;0.65;;;;;;;;;;4915894;29;20048;-36
2021/10/15 10:53:59;;;;;;;0.65;0.60;;;;;;;;;;4915902;29;20092;-36
2021/10/15 10:56:36;;;;;;;1.25;0.70;;;;;;;;;;4916082;29;20068;-36
2021/10/15 10:59:21;;;;;;;0.70;0.70;;;;;;;;;;4915936;29;20040;-36
2021/10/15 11:02:02;;;;;;;1.45;1.35;;;;;;;;;;4915816;29;20060;-36
2021/10/15 11:04:30;;;;;;;0.93;0.57;;;;;;;;;;4914539;29;20380;-36
2021/10/15 11:06:59;;;;;;;0.77;0.60;;;;;;;;;;4915823;29;20020;-36
2021/10/15 11:09:27;;;;;;;1.15;1.05;;;;;;;;;;4916004;29;20071;-36
2021/10/15 11:11:53;;;;;;;1.05;0.85;;;;;;;;;;4915589;29;20039;-36
2021/10/15 11:14:46;;;;;;;1.83;0.90;;;;;;;;;;4915656;29;20032;-36
2021/10/15 11:17:12;;;;;;;3.08;0.68;;;;;;;;;;4916003;29;20036;-36
2021/10/15 11:19:38;;;;;;;0.90;0.65;;;;;;;;;;4915357;29;20107;-36
2021/10/15 11:22:03;;;;;;;4.53;1.08;;;;;;;;;;4915791;29;20035;-36
2021/10/15 11:24:29;;;;;;;0.82;0.70;;;;;;;;;;4914216;29;20047;-36
2021/10/15 11:26:55;;;;;;;1.30;0.70;;;;;;;;;;4915427;29;20542;-36
2021/10/15 11:29:20;;;;;;;1.08;0.65;;;;;;;;;;4915401;29;20384;-36
2021/10/15 11:31:56;;;;;;;2.10;0.88;;;;;;;;;;4915048;29;20059;-39
2021/10/15 11:34:22;;;;;;;3.22;0.55;;;;;;;;;;4915346;29;20028;-36
2021/10/15 11:36:48;;;;;;;0.95;0.90;;;;;;;;;;4915275;29;20032;-36
2021/10/15 11:39:13;;;;;;;2.55;1.17;;;;;;;;;;4915371;29;20384;-36
2021/10/15 11:41:51;;;;;;;1.33;0.80;;;;;;;;;;4915415;29;20032;-36
2021/10/15 11:44:30;;;;;;;5.22;0.80;;;;;;;;;;4915277;29;20036;-37
2021/10/15 11:46:56;;;;;;;1.60;0.75;;;;;;;;;;4915094;29;20025;-36
2021/10/15 11:49:21;;;;;;;2.20;0.63;;;;;;;;;;4915221;29;20023;-36
2021/10/15 11:51:47;;;;;;;3.03;2.33;;;;;;;;;;4915121;29;20044;-36
2021/10/15 11:54:12;;;;;;;0.70;0.70;;;;;;;;;;4915058;29;20111;-36
2021/10/15 11:56:38;;;;;;;1.23;0.90;;;;;;;;;;4914971;29;20055;-36
2021/10/15 11:59:07;;;;;;;1.50;0.70;;;;;;;;;;4915116;29;20061;-36
2021/10/15 12:01:33;;;;;;;1.38;0.60;;;;;;;;;;4914977;29;20036;-36
2021/10/15 12:04:08;;;;;;;2.22;0.70;;;;;;;;;;4915311;29;20092;-36
2021/10/15 12:06:43;;;;;;;1.77;0.93;;;;;;;;;;4915316;29;20036;-36
2021/10/15 12:09:12;;;;;;;1.55;0.90;;;;;;;;;;4914893;29;20044;-36
2021/10/15 12:11:38;;;;;;;3.88;0.93;;;;;;;;;;4913687;29;20495;-36
2021/10/15 12:14:16;;;;;;;0.77;0.68;;;;;;;;;;4915255;29;20119;-36
2021/10/15 12:16:47;;;;;;;2.40;0.90;;;;;;;;;;4914870;29;20073;-36
2021/10/15 12:19:26;;;;;;;1.02;0.75;;;;;;;;;;4915086;29;20036;-36
2021/10/15 12:21:55;;;;;;;0.60;0.60;;;;;;;;;;4916803;29;20040;-36
2021/10/15 12:24:26;;;;;;;0.60;0.60;;;;;;;;;;4918606;29;20020;-36
2021/10/15 12:27:19;;;;;;;1.17;0.80;;;;;;;;;;4918618;29;20055;-36
2021/10/15 12:29:49;;;;;;;1.00;0.85;;;;;;;;;;4915798;29;20044;-36
2021/10/15 12:32:14;;;;;;;1.13;0.85;;;;;;;;;;4918395;29;20056;-37
2021/10/15 12:34:51;;;;;;;1.80;0.60;;;;;;;;;;4917219;29;20387;-36
2021/10/15 12:37:26;;;;;;;0.90;0.80;;;;;;;;;;4918716;29;20029;-36
2021/10/15 12:40:06;;;;;;;0.75;0.55;;;;;;;;;;4918565;29;20039;-36
2021/10/15 12:42:31;;;;;;;1.77;0.90;;;;;;;;;;4918379;29;20483;-36
2021/10/15 12:45:03;;;;;;;1.67;0.88;;;;;;;;;;4918112;29;20031;-36
2021/10/15 12:47:28;;;;;;;3.35;0.70;;;;;;;;;;4918360;29;20117;-36
2021/10/15 12:49:58;;;;;;;0.70;0.60;;;;;;;;;;4918105;29;20111;-36
2021/10/15 12:52:40;;;;;;;3.42;0.70;;;;;;;;;;4918095;29;20051;-36
2021/10/15 12:55:26;;;;;;;2.10;0.77;;;;;;;;;;4918174;29;20032;-36
2021/10/15 12:58:00;;;;;;;3.58;0.65;;;;;;;;;;4917667;29;20548;-36
2021/10/15 13:00:25;;;;;;;3.40;0.60;;;;;;;;;;4916789;29;20036;-36
2021/10/15 13:03:04;;;;;;;1.75;0.80;;;;;;;;;;4917988;29;20084;-36
2021/10/15 13:05:31;;;;;;;1.00;0.77;;;;;;;;;;4918300;29;20547;-36
2021/10/15 13:07:56;;;;;;;2.10;0.95;;;;;;;;;;4917932;29;20028;-36
2021/10/15 13:10:23;;;;;;;1.13;0.63;;;;;;;;;;4917811;29;20036;-36
2021/10/15 13:12:51;;;;;;;1.27;0.70;;;;;;;;;;4917994;29;20108;-36
2021/10/15 13:15:18;;;;;;;1.08;0.75;;;;;;;;;;4917703;29;20119;-36
2021/10/15 13:17:43;;;;;;;1.38;1.02;;;;;;;;;;4916673;29;20031;-36
2021/10/15 13:20:09;;;;;;;1.38;0.85;;;;;;;;;;4917689;29;20036;-36
2021/10/15 13:22:36;;;;;;;1.48;0.70;;;;;;;;;;4917365;29;20028;-36
2021/10/15 13:25:02;;;;;;;0.90;0.68;;;;;;;;;;4917696;29;20028;-36
2021/10/15 13:27:27;;;;;;;0.95;0.65;;;;;;;;;;4917528;29;20017;-36
2021/10/15 13:29:53;;;;;;;1.33;0.77;;;;;;;;;;4917753;29;20036;-36
2021/10/15 13:32:19;;;;;;;1.05;0.90;;;;;;;;;;4916611;29;20085;-37
2021/10/15 13:34:49;;;;;;;4.90;1.25;;;;;;;;;;4916955;29;20506;-36
2021/10/15 13:37:26;;;;;;;1.13;0.68;;;;;;;;;;4917650;29;20430;-36
2021/10/15 13:39:57;;;;;;;0.52;0.52;;;;;;;;;;4917376;29;20024;-37
2021/10/15 13:50:16;;;;;;;1.70;0.65;;;;;;;;;;4917396;29;20407;-36
2021/10/15 13:52:42;;;;;;;2.75;0.90;;;;;;;;;;4917086;29;20060;-36
2021/10/15 13:55:09;;;;;;;0.75;0.73;;;;;;;;;;4917188;29;20349;-37
2021/10/15 13:57:36;;;;;;;2.05;0.70;;;;;;;;;;4917054;29;20020;-36
2021/10/15 14:00:25;;;;;;;1.45;0.82;;;;;;;;;;4917019;29;20392;-36
2021/10/15 14:02:54;;;;;;;2.92;0.75;;;;;;;;;;4916885;29;20036;-36
2021/10/15 14:05:20;;;;;;;2.22;0.90;;;;;;;;;;4917126;29;20032;-36
2021/10/15 14:07:46;;;;;;;1.15;0.70;;;;;;;;;;4916808;29;20039;-36
2021/10/15 14:10:11;;;;;;;0.90;0.80;;;;;;;;;;4916946;29;20028;-37
2021/10/15 14:12:38;;;;;;;1.40;0.80;;;;;;;;;;4915459;29;20387;-36
2021/10/15 14:15:04;;;;;;;0.90;0.70;;;;;;;;;;4916835;29;20053;-36
2021/10/15 14:17:30;;;;;;;1.75;1.33;;;;;;;;;;4916690;29;20202;-36
2021/10/15 14:19:56;;;;;;;1.92;1.15;;;;;;;;;;4916648;29;20371;-36
2021/10/15 14:22:23;;;;;;;1.90;1.10;;;;;;;;;;4916585;29;20387;-36
2021/10/15 14:24:48;;;;;;;2.50;0.85;;;;;;;;;;4916540;29;20035;-36
2021/10/15 14:27:14;;;;;;;1.40;0.90;;;;;;;;;;4915472;29;20040;-36
2021/10/15 14:29:40;;;;;;;1.08;0.55;;;;;;;;;;4899422;29;20028;-36
2021/10/15 14:32:06;;;;;;;1.42;0.80;;;;;;;;;;4916242;29;20078;-36
2021/10/15 14:34:32;;;;;;;1.27;0.80;;;;;;;;;;4916694;29;20505;-36
2021/10/15 14:36:57;;;;;;;1.58;0.60;;;;;;;;;;4916285;29;20059;-36
2021/10/15 14:39:23;;;;;;;0.98;0.80;;;;;;;;;;4915063;29;20111;-36
2021/10/15 14:41:48;;;;;;;1.52;0.90;;;;;;;;;;4916117;29;20032;-36
2021/10/15 14:44:14;;;;;;;0.80;0.70;;;;;;;;;;4916064;29;20031;-36
2021/10/15 14:46:40;;;;;;;1.30;0.65;;;;;;;;;;4916052;29;20043;-36
2021/10/15 14:49:06;;;;;;;1.40;1.15;;;;;;;;;;4916148;29;20431;-36
2021/10/15 14:51:32;;;;;;;0.70;0.70;;;;;;;;;;4916264;29;20123;-36
2021/10/15 14:53:57;;;;;;;0.80;0.80;;;;;;;;;;4915946;29;20020;-36
2021/10/15 14:56:23;;;;;;;0.82;0.70;;;;;;;;;;4916097;29;20463;-37
2021/10/15 14:58:48;;;;;;;0.82;0.60;;;;;;;;;;4930564;29;20031;-36
2021/10/15 15:01:14;;;;;;;2.38;0.98;;;;;;;;;;4915779;29;20641;-36
2021/10/15 15:03:40;;;;;;;1.15;0.82;;;;;;;;;;4915886;29;20071;-36